Time;durP1;ratioP1;P1;durP2;ratioP2;P2;SDS_P1;SDS_P2;PMS_P1;PMS_P2;Temp;Humidity;BMP_temperature;BMP_pressure;BME280_temperature;BME280_humidity;BME280_pressure;Samples;Min_cycle;Max_cycle;Signal;HPM_P1;HPM_P2
2022/06/24 00:00:09;;;;;;;13.77;6.55;;;15.70;99.90;;;;;;4998964;28;20052;-61
2022/06/24 00:02:35;;;;;;;13.38;7.88;;;15.70;99.90;;;;;;5008214;28;20022;-62
2022/06/24 00:05:06;;;;;;;12.55;6.85;;;15.60;99.90;;;;;;5010549;28;20049;-62
2022/06/24 00:07:46;;;;;;;15.80;7.38;;;15.70;99.90;;;;;;5007069;28;20046;-62
2022/06/24 00:10:14;;;;;;;20.23;7.88;;;15.60;99.90;;;;;;5010550;28;20125;-62
2022/06/24 00:12:40;;;;;;;16.88;6.95;;;15.70;99.90;;;;;;5000220;28;20076;-63
2022/06/24 00:15:07;;;;;;;13.60;7.43;;;15.60;99.90;;;;;;5010235;28;20041;-61
2022/06/24 00:17:32;;;;;;;11.48;8.20;;;15.60;99.90;;;;;;5010171;28;20058;-62
2022/06/24 00:20:07;;;;;;;14.68;8.35;;;15.50;99.90;;;;;;5007438;28;20060;-61
2022/06/24 00:22:45;;;;;;;18.08;9.38;;;15.50;99.90;;;;;;5009849;28;20486;-62
2022/06/24 00:25:25;;;;;;;15.75;8.73;;;15.60;99.90;;;;;;5003639;28;20034;-62
2022/06/24 00:28:09;;;;;;;16.02;7.88;;;15.60;99.90;;;;;;5007165;28;20033;-62
2022/06/24 00:30:52;;;;;;;19.67;9.05;;;15.60;99.90;;;;;;4999915;28;20057;-62
2022/06/24 00:33:20;;;;;;;12.30;7.55;;;15.50;99.90;;;;;;5009711;28;20072;-61
2022/06/24 00:35:54;;;;;;;16.63;7.82;;;15.50;99.90;;;;;;5008294;28;20185;-61
2022/06/24 00:38:22;;;;;;;17.40;8.27;;;15.50;99.90;;;;;;5028520;28;20022;-61
2022/06/24 00:41:09;;;;;;;19.42;8.82;;;15.50;99.90;;;;;;5011185;28;20033;-61
2022/06/24 00:43:36;;;;;;;17.50;8.02;;;15.60;99.90;;;;;;5015414;28;20160;-63
2022/06/24 00:46:14;;;;;;;12.77;7.95;;;15.60;99.90;;;;;;5008430;28;20026;-63
2022/06/24 00:48:46;;;;;;;11.25;8.50;;;15.60;99.90;;;;;;5013477;28;20483;-61
2022/06/24 00:51:12;;;;;;;;;;;15.60;99.90;;;;;;5016504;28;20033;-61
2022/06/24 00:53:54;;;;;;;19.20;8.93;;;15.70;99.90;;;;;;5014349;28;19909;-61
2022/06/24 00:56:22;;;;;;;18.02;8.38;;;15.60;99.90;;;;;;5015584;28;20057;-62
2022/06/24 00:59:03;;;;;;;14.82;7.47;;;15.60;99.90;;;;;;5013567;28;20025;-60
2022/06/24 01:01:40;;;;;;;14.07;7.25;;;15.70;99.90;;;;;;5016155;28;20037;-61
2022/06/24 01:04:08;;;;;;;15.80;7.95;;;15.80;99.90;;;;;;5010278;28;20033;-62
2022/06/24 01:06:36;;;;;;;10.40;7.60;;;15.90;99.90;;;;;;5015686;28;20474;-62
2022/06/24 01:09:02;;;;;;;15.13;6.95;;;15.90;99.90;;;;;;5015069;28;20033;-62
2022/06/24 01:11:41;;;;;;;18.73;8.13;;;15.90;99.90;;;;;;5015788;28;20030;-62
2022/06/24 01:14:08;;;;;;;17.30;7.82;;;15.90;99.90;;;;;;5015988;28;20034;-62
2022/06/24 01:16:34;;;;;;;16.30;7.72;;;15.90;99.90;;;;;;5015931;28;20038;-62
2022/06/24 01:19:07;;;;;;;18.67;7.63;;;16.00;99.90;;;;;;5005354;28;20113;-62
2022/06/24 01:21:36;;;;;;;13.07;7.00;;;16.00;99.90;;;;;;5009383;28;20557;-62
2022/06/24 01:24:18;;;;;;;20.77;7.43;;;16.00;99.90;;;;;;5009117;28;20022;-62
2022/06/24 01:26:52;;;;;;;11.90;6.72;;;16.10;99.90;;;;;;5011872;28;20029;-62
2022/06/24 01:29:19;;;;;;;11.90;6.30;;;16.10;99.90;;;;;;5014500;28;20041;-61
2022/06/24 01:31:48;;;;;;;13.52;5.97;;;16.00;99.90;;;;;;5013371;28;20041;-62
2022/06/24 01:34:16;;;;;;;13.23;6.32;;;15.90;99.90;;;;;;5015012;28;20536;-62
2022/06/24 01:36:42;;;;;;;13.50;6.03;;;15.90;99.90;;;;;;5013701;28;20379;-62
2022/06/24 01:39:08;;;;;;;15.27;6.32;;;15.90;99.90;;;;;;5014288;28;20485;-62
2022/06/24 01:41:34;;;;;;;13.27;7.40;;;15.80;99.90;;;;;;5015329;28;20038;-61
2022/06/24 01:44:01;;;;;;;13.55;6.82;;;15.80;99.90;;;;;;5013107;28;20381;-62
2022/06/24 01:46:28;;;;;;;15.10;8.73;;;15.70;99.90;;;;;;5015244;28;20060;-61
2022/06/24 01:48:53;;;;;;;16.23;8.25;;;15.60;99.90;;;;;;5007664;28;20544;-62
2022/06/24 01:51:22;;;;;;;12.30;7.82;;;15.50;99.90;;;;;;5011674;28;20033;-62
2022/06/24 01:53:47;;;;;;;13.02;8.38;;;15.40;99.90;;;;;;5009908;28;20034;-60
2022/06/24 01:56:13;;;;;;;15.88;8.60;;;15.40;99.90;;;;;;5011718;28;20552;-61
2022/06/24 01:58:39;;;;;;;13.43;7.97;;;15.30;99.90;;;;;;5008306;28;20100;-61
2022/06/24 02:01:05;;;;;;;13.27;7.15;;;15.30;99.90;;;;;;5009369;28;20026;-62
2022/06/24 02:03:38;;;;;;;13.18;7.53;;;15.30;99.90;;;;;;5012020;28;20022;-61
2022/06/24 02:06:05;;;;;;;11.75;7.07;;;15.20;99.90;;;;;;5004610;28;20033;-61
2022/06/24 02:08:31;;;;;;;15.52;7.43;;;15.20;99.90;;;;;;5007965;28;20030;-62
2022/06/24 02:13:44;;;;;;;14.13;6.80;;;15.20;99.90;;;;;;5006454;28;20079;-62
2022/06/24 02:16:10;;;;;;;13.30;6.95;;;15.10;99.90;;;;;;5012021;28;20057;-62
2022/06/24 02:18:36;;;;;;;13.82;7.22;;;15.10;99.90;;;;;;5007649;28;20425;-62
2022/06/24 02:21:03;;;;;;;14.55;7.32;;;15.10;99.90;;;;;;5006693;28;20029;-62
2022/06/24 02:23:29;;;;;;;14.02;7.72;;;15.10;99.90;;;;;;5011545;28;20037;-62
2022/06/24 02:25:55;;;;;;;12.57;6.30;;;15.10;99.90;;;;;;5009244;28;20423;-61
2022/06/24 02:28:21;;;;;;;12.85;7.10;;;15.00;99.90;;;;;;5010421;28;20112;-62
2022/06/24 02:30:50;;;;;;;16.48;8.75;;;15.00;99.90;;;;;;5006021;28;20520;-62
2022/06/24 02:33:16;;;;;;;10.68;6.22;;;15.00;99.90;;;;;;5007857;28;20125;-62
2022/06/24 02:35:42;;;;;;;15.73;6.82;;;15.00;99.90;;;;;;5009137;28;20132;-62
2022/06/24 02:38:08;;;;;;;12.35;6.90;;;15.00;99.90;;;;;;5010735;28;20394;-62
2022/06/24 02:40:47;;;;;;;13.00;6.90;;;15.00;99.90;;;;;;5010305;28;20109;-62
2022/06/24 02:43:19;;;;;;;16.75;8.50;;;15.00;99.90;;;;;;5010829;28;20486;-62
2022/06/24 02:45:49;;;;;;;11.32;7.97;;;14.90;99.90;;;;;;5007192;28;20079;-62
2022/06/24 02:48:16;;;;;;;12.45;6.68;;;15.00;99.90;;;;;;5011102;28;20101;-62
2022/06/24 02:50:44;;;;;;;13.38;7.57;;;15.00;99.90;;;;;;5010234;28;20044;-63
2022/06/24 02:53:11;;;;;;;13.30;8.40;;;15.10;99.90;;;;;;5007711;28;20038;-62
2022/06/24 02:55:38;;;;;;;15.05;8.30;;;15.10;99.90;;;;;;5008893;28;20033;-62
2022/06/24 02:58:06;;;;;;;12.35;7.53;;;15.10;99.90;;;;;;5008586;28;20022;-62
2022/06/24 03:00:33;;;;;;;14.60;8.68;;;15.10;99.90;;;;;;5010715;28;20061;-61
2022/06/24 03:02:59;;;;;;;14.55;8.15;;;15.10;99.90;;;;;;5006887;28;20048;-61
2022/06/24 03:05:25;;;;;;;18.27;8.88;;;15.10;99.90;;;;;;5011089;28;20029;-61
2022/06/24 03:07:52;;;;;;;18.30;8.77;;;15.10;99.90;;;;;;5006046;28;20026;-62
2022/06/24 03:10:18;;;;;;;13.00;7.75;;;15.00;99.90;;;;;;5010554;28;20033;-62
2022/06/24 03:12:43;;;;;;;13.07;7.18;;;15.00;99.90;;;;;;5008110;28;20084;-62
2022/06/24 03:15:10;;;;;;;13.07;6.45;;;15.00;99.90;;;;;;5009831;28;20042;-62
2022/06/24 03:17:36;;;;;;;10.95;7.30;;;15.00;99.90;;;;;;5008906;28;20033;-60
2022/06/24 03:20:04;;;;;;;11.98;7.20;;;14.90;99.90;;;;;;5010829;28;20022;-60
2022/06/24 03:22:29;;;;;;;8.88;6.25;;;14.90;99.90;;;;;;5009975;28;20041;-61
2022/06/24 03:24:55;;;;;;;10.48;6.70;;;14.90;99.90;;;;;;5008872;28;20026;-62
2022/06/24 03:27:21;;;;;;;13.40;6.22;;;14.80;99.90;;;;;;5009032;28;20474;-61
2022/06/24 03:29:47;;;;;;;13.05;6.47;;;14.80;99.90;;;;;;5007770;28;20083;-61
2022/06/24 03:32:14;;;;;;;13.85;5.85;;;14.80;99.90;;;;;;5008785;28;20045;-62
2022/06/24 03:34:40;;;;;;;9.57;5.60;;;14.80;99.90;;;;;;5008708;28;20049;-61
2022/06/24 03:37:06;;;;;;;15.77;6.60;;;14.80;99.90;;;;;;5009247;28;20029;-60
2022/06/24 03:39:32;;;;;;;7.97;5.65;;;14.80;99.90;;;;;;5008102;28;20033;-60
2022/06/24 03:41:58;;;;;;;12.75;6.35;;;14.80;99.90;;;;;;5007092;28;20028;-60
2022/06/24 03:44:24;;;;;;;9.68;5.68;;;14.70;99.90;;;;;;5009563;28;20072;-61
2022/06/24 03:46:50;;;;;;;9.05;5.57;;;14.70;99.90;;;;;;5005398;28;20076;-60
2022/06/24 03:49:15;;;;;;;7.13;4.68;;;14.60;99.90;;;;;;5002492;28;20042;-61
2022/06/24 03:51:42;;;;;;;11.25;4.57;;;14.60;99.90;;;;;;5008516;28;20033;-62
2022/06/24 03:54:08;;;;;;;9.90;5.18;;;14.70;99.90;;;;;;5010507;28;20034;-61
2022/06/24 03:56:34;;;;;;;10.43;5.07;;;14.70;99.90;;;;;;5008266;28;20065;-59
2022/06/24 03:58:59;;;;;;;14.30;6.47;;;14.60;99.90;;;;;;5007823;28;20065;-61
2022/06/24 04:01:25;;;;;;;10.18;4.95;;;14.70;99.90;;;;;;5010223;28;20022;-61
2022/06/24 04:03:51;;;;;;;8.88;5.13;;;14.60;99.90;;;;;;5007522;28;20116;-61
2022/06/24 04:06:17;;;;;;;9.20;5.45;;;14.60;99.90;;;;;;5009227;28;20417;-61
2022/06/24 04:08:43;;;;;;;10.15;4.72;;;14.70;99.90;;;;;;5007046;28;20478;-61
2022/06/24 04:11:15;;;;;;;9.82;5.93;;;14.80;99.90;;;;;;5008939;28;20026;-61
2022/06/24 04:13:41;;;;;;;9.63;5.15;;;14.70;99.90;;;;;;5008238;28;20083;-61
2022/06/24 04:16:07;;;;;;;10.43;5.60;;;14.80;99.90;;;;;;5007948;28;20044;-62
2022/06/24 04:18:33;;;;;;;8.82;5.30;;;14.80;99.90;;;;;;5009990;28;20470;-61
2022/06/24 04:21:00;;;;;;;8.30;4.75;;;14.80;99.90;;;;;;5008317;28;20036;-62
2022/06/24 04:23:26;;;;;;;10.63;5.00;;;14.80;99.90;;;;;;5008470;28;20386;-61
2022/06/24 04:25:52;;;;;;;14.82;6.25;;;14.90;99.90;;;;;;5007766;28;20069;-61
2022/06/24 04:28:18;;;;;;;8.75;4.43;;;14.90;99.90;;;;;;5009171;28;20029;-61
2022/06/24 04:30:44;;;;;;;12.40;5.63;;;14.90;99.90;;;;;;5007072;28;20045;-62
2022/06/24 04:33:10;;;;;;;10.57;5.30;;;14.90;99.90;;;;;;5009661;28;20525;-62
2022/06/24 04:35:36;;;;;;;11.25;4.88;;;14.90;99.90;;;;;;5009341;28;20117;-62
2022/06/24 04:38:02;;;;;;;10.63;5.40;;;14.90;99.90;;;;;;5006476;28;20026;-62
2022/06/24 04:40:28;;;;;;;13.07;6.50;;;14.90;99.90;;;;;;5008615;28;20038;-63
2022/06/24 04:42:54;;;;;;;8.70;4.97;;;14.90;99.90;;;;;;5006021;28;20068;-62
2022/06/24 04:45:20;;;;;;;8.85;5.05;;;14.90;99.90;;;;;;5008792;28;20474;-63
2022/06/24 04:47:46;;;;;;;10.23;5.57;;;14.90;99.90;;;;;;5006932;28;20026;-61
2022/06/24 04:50:12;;;;;;;6.75;5.20;;;15.00;99.90;;;;;;5009939;28;20387;-62
2022/06/24 04:52:39;;;;;;;11.63;4.97;;;15.10;99.90;;;;;;5006883;28;20022;-62
2022/06/24 04:55:06;;;;;;;11.45;5.80;;;15.10;99.90;;;;;;5009357;28;20429;-62
2022/06/24 04:57:32;;;;;;;10.68;5.57;;;15.30;99.90;;;;;;5008234;28;20030;-62
2022/06/24 04:59:58;;;;;;;9.50;4.90;;;15.30;99.90;;;;;;5005914;28;20029;-62
2022/06/24 05:02:24;;;;;;;11.63;5.32;;;15.30;99.90;;;;;;5008018;28;20058;-62
2022/06/24 05:04:49;;;;;;;13.10;4.90;;;15.40;99.90;;;;;;5007344;28;20034;-62
2022/06/24 05:07:15;;;;;;;9.55;5.28;;;15.50;99.90;;;;;;5009602;28;20030;-61
2022/06/24 05:09:42;;;;;;;9.52;5.35;;;15.50;99.90;;;;;;5006719;28;20057;-63
2022/06/24 05:12:08;;;;;;;11.90;5.07;;;15.60;99.90;;;;;;5007429;28;20026;-62
2022/06/24 05:14:34;;;;;;;12.05;5.75;;;15.70;99.90;;;;;;5003822;28;20025;-61
2022/06/24 05:17:00;;;;;;;11.13;5.88;;;15.80;99.90;;;;;;5008015;28;20033;-62
2022/06/24 05:19:26;;;;;;;8.80;4.75;;;15.90;99.90;;;;;;5009384;28;20025;-62
2022/06/24 05:21:52;;;;;;;11.57;5.15;;;15.90;99.90;;;;;;5005070;28;20021;-62
2022/06/24 05:24:18;;;;;;;8.65;4.65;;;16.00;99.90;;;;;;5008100;28;20516;-63
2022/06/24 05:26:45;;;;;;;9.15;5.68;;;16.10;99.90;;;;;;5007492;28;20034;-63
2022/06/24 05:29:11;;;;;;;10.85;5.30;;;16.30;99.90;;;;;;5013051;28;20433;-61
2022/06/24 05:31:37;;;;;;;11.50;4.43;;;16.40;99.90;;;;;;5011069;28;20061;-61
2022/06/24 05:34:03;;;;;;;7.30;4.47;;;16.60;99.90;;;;;;5004052;28;20084;-61
2022/06/24 05:36:29;;;;;;;9.82;4.25;;;16.60;99.90;;;;;;5012581;28;20077;-62
2022/06/24 05:38:55;;;;;;;9.40;4.55;;;16.70;99.90;;;;;;5006470;28;20037;-61
2022/06/24 05:41:22;;;;;;;7.47;4.43;;;16.80;99.90;;;;;;5011452;28;20030;-62
2022/06/24 05:43:48;;;;;;;10.52;4.90;;;16.90;99.90;;;;;;5010867;28;20036;-62
2022/06/24 05:46:14;;;;;;;9.07;3.72;;;17.00;99.90;;;;;;5012665;28;20034;-62
2022/06/24 05:48:40;;;;;;;8.45;4.63;;;17.00;99.90;;;;;;5001857;28;20367;-61
2022/06/24 05:51:11;;;;;;;7.75;3.85;;;17.00;99.90;;;;;;5011138;28;20022;-63
2022/06/24 05:56:22;;;;;;;7.70;3.10;;;17.00;99.90;;;;;;5011344;28;20053;-62
2022/06/24 05:58:48;;;;;;;6.85;3.38;;;16.90;99.90;;;;;;5005078;28;20030;-62
2022/06/24 06:01:14;;;;;;;7.43;3.78;;;16.70;99.90;;;;;;5009254;28;20052;-62
2022/06/24 06:03:40;;;;;;;6.82;3.55;;;16.80;99.90;;;;;;5008407;28;20439;-64
2022/06/24 06:06:07;;;;;;;8.68;3.58;;;16.80;99.90;;;;;;5004733;28;20030;-61
2022/06/24 06:08:37;;;;;;;4.40;3.08;;;16.80;99.90;;;;;;5009639;28;20034;-62
2022/06/24 06:11:23;;;;;;;7.38;3.47;;;16.70;99.90;;;;;;4999101;28;20030;-62
2022/06/24 06:13:52;;;;;;;7.57;4.40;;;16.60;99.90;;;;;;4999242;28;20034;-62
2022/06/24 06:16:18;;;;;;;8.43;4.38;;;16.50;99.90;;;;;;5004738;28;20132;-61
2022/06/24 06:18:44;;;;;;;8.20;3.67;;;16.60;99.90;;;;;;5009400;28;20394;-62
2022/06/24 06:21:11;;;;;;;10.05;4.50;;;16.60;99.90;;;;;;5018022;28;20385;-61
2022/06/24 06:23:38;;;;;;;8.77;3.80;;;16.50;99.90;;;;;;5010436;28;20050;-61
2022/06/24 06:26:06;;;;;;;9.25;4.22;;;16.40;99.90;;;;;;5011694;28;20034;-61
2022/06/24 06:28:33;;;;;;;10.23;4.82;;;16.40;99.90;;;;;;5010150;28;20061;-62
2022/06/24 06:30:59;;;;;;;14.00;4.78;;;16.50;99.90;;;;;;5008676;28;20112;-65
2022/06/24 06:33:25;;;;;;;8.63;4.60;;;16.60;99.90;;;;;;5012064;28;20033;-62
2022/06/24 06:35:51;;;;;;;9.25;5.38;;;16.70;99.90;;;;;;5009835;28;20037;-62
2022/06/24 06:38:17;;;;;;;9.15;4.40;;;16.90;99.90;;;;;;5009528;28;20394;-62
2022/06/24 06:40:43;;;;;;;6.90;4.35;;;17.10;99.90;;;;;;5009038;28;20045;-62
2022/06/24 06:43:12;;;;;;;9.00;3.60;;;17.10;99.90;;;;;;5009670;28;20022;-62
2022/06/24 06:45:38;;;;;;;12.38;4.13;;;17.10;99.90;;;;;;5009300;28;20037;-62
2022/06/24 06:48:05;;;;;;;9.88;3.92;;;17.10;99.90;;;;;;5010919;28;20025;-62
2022/06/24 06:50:31;;;;;;;6.93;3.50;;;17.00;99.90;;;;;;5011431;28;20478;-62
2022/06/24 06:52:58;;;;;;;11.52;5.88;;;16.90;99.90;;;;;;5009592;28;20108;-62
2022/06/24 06:55:23;;;;;;;7.85;4.30;;;16.90;99.90;;;;;;5011220;28;20064;-62
2022/06/24 06:57:50;;;;;;;5.82;3.42;;;17.10;99.90;;;;;;5007638;28;21609;-62
2022/06/24 07:00:17;;;;;;;7.50;3.80;;;17.00;99.90;;;;;;5006274;28;20478;-62
2022/06/24 07:02:43;;;;;;;8.63;4.53;;;17.10;99.90;;;;;;5008045;28;20117;-61
2022/06/24 07:05:09;;;;;;;9.32;3.90;;;17.10;99.90;;;;;;5016699;28;20125;-62
2022/06/24 07:07:35;;;;;;;9.98;3.63;;;17.20;99.90;;;;;;5009967;28;20500;-61
2022/06/24 07:10:01;;;;;;;7.95;4.30;;;17.40;99.90;;;;;;5009006;28;20452;-62
2022/06/24 07:12:27;;;;;;;9.35;3.25;;;17.70;99.90;;;;;;5002714;28;20022;-63
2022/06/24 07:14:53;;;;;;;8.32;3.58;;;18.00;99.90;;;;;;5009387;28;20069;-62
2022/06/24 07:17:19;;;;;;;6.40;2.80;;;18.10;99.90;;;;;;5005985;28;20049;-63
2022/06/24 07:19:46;;;;;;;5.43;2.97;;;18.40;99.90;;;;;;5008045;28;20037;-61
2022/06/24 07:22:13;;;;;;;4.10;2.63;;;18.40;99.90;;;;;;5010235;28;20104;-61
2022/06/24 07:24:39;;;;;;;7.72;2.25;;;18.40;99.90;;;;;;5005192;28;20037;-61
2022/06/24 07:27:06;;;;;;;5.30;2.80;;;18.40;99.90;;;;;;5009141;28;20022;-62
2022/06/24 07:29:33;;;;;;;3.13;2.33;;;18.40;99.90;;;;;;5005026;28;20113;-61
2022/06/24 07:32:00;;;;;;;4.07;2.67;;;18.30;99.90;;;;;;5005988;28;20487;-62
2022/06/24 07:34:26;;;;;;;10.27;4.13;;;18.30;99.90;;;;;;4999025;28;20034;-62
2022/06/24 07:36:53;;;;;;;7.78;3.25;;;18.40;99.90;;;;;;5001930;28;20397;-62
2022/06/24 07:39:18;;;;;;;9.60;3.38;;;18.40;99.90;;;;;;5008260;28;20432;-63
2022/06/24 07:41:44;;;;;;;6.18;2.55;;;18.60;99.90;;;;;;5007737;28;20120;-62
2022/06/24 07:44:10;;;;;;;7.22;5.78;;;18.70;99.90;;;;;;5002942;28;20026;-62
2022/06/24 07:46:36;;;;;;;5.45;2.40;;;18.60;99.90;;;;;;5009961;28;20060;-62
2022/06/24 07:49:02;;;;;;;6.75;2.70;;;18.30;99.90;;;;;;5007362;28;20478;-62
2022/06/24 07:51:29;;;;;;;2.85;2.13;;;18.20;99.90;;;;;;5006320;28;20045;-63
2022/06/24 07:53:54;;;;;;;4.50;2.55;;;18.00;99.90;;;;;;5002576;28;20433;-63
2022/06/24 07:59:05;;;;;;;4.40;2.38;;;17.90;99.90;;;;;;5002823;28;20112;-61
2022/06/24 08:01:31;;;;;;;6.13;2.85;;;17.90;99.90;;;;;;5008232;28;20088;-61
2022/06/24 08:03:57;;;;;;;9.80;3.67;;;17.80;99.90;;;;;;5007010;28;20046;-61
2022/06/24 08:06:23;;;;;;;7.07;3.20;;;17.80;99.90;;;;;;5007953;28;20022;-62
2022/06/24 08:08:48;;;;;;;7.75;2.95;;;17.90;99.90;;;;;;5005659;28;20108;-64
2022/06/24 08:11:14;;;;;;;5.40;2.53;;;17.90;99.90;;;;;;5009791;28;20030;-62
2022/06/24 08:13:40;;;;;;;6.25;2.85;;;17.90;99.90;;;;;;5007439;28;20065;-61
2022/06/24 08:16:06;;;;;;;7.28;3.17;;;18.10;99.90;;;;;;5008092;28;20581;-62
2022/06/24 08:18:32;;;;;;;2.25;1.70;;;18.50;99.90;;;;;;5008162;28;20112;-62
2022/06/24 08:20:58;;;;;;;5.78;2.28;;;18.90;99.90;;;;;;5004855;28;20034;-63
2022/06/24 08:23:23;;;;;;;4.70;1.77;;;19.20;99.90;;;;;;5001907;28;20048;-62
2022/06/24 08:25:49;;;;;;;5.88;2.03;;;19.60;99.90;;;;;;5007953;28;20053;-62
2022/06/24 08:28:15;;;;;;;5.40;2.42;;;19.70;99.90;;;;;;5003075;28;20034;-62
2022/06/24 08:30:41;;;;;;;4.03;1.67;;;20.00;99.90;;;;;;5006786;28;20104;-61
2022/06/24 08:33:06;;;;;;;3.47;1.85;;;20.00;99.90;;;;;;5008073;28;20114;-60
2022/06/24 08:35:32;;;;;;;5.47;2.83;;;20.10;99.90;;;;;;5009955;28;20128;-61
2022/06/24 08:37:59;;;;;;;2.63;1.80;;;20.10;99.90;;;;;;5004271;28;20026;-61
2022/06/24 08:40:26;;;;;;;7.00;1.98;;;20.00;99.90;;;;;;5008976;28;20034;-61
2022/06/24 08:42:54;;;;;;;4.78;2.08;;;20.10;99.90;;;;;;5004336;28;20038;-62
2022/06/24 08:45:21;;;;;;;8.80;2.45;;;20.00;99.90;;;;;;5008414;28;20030;-62
2022/06/24 08:47:48;;;;;;;4.85;2.30;;;19.70;99.90;;;;;;5004317;28;20026;-62
2022/06/24 08:50:13;;;;;;;3.13;2.22;;;19.50;99.90;;;;;;5004950;28;20026;-63
2022/06/24 08:52:47;;;;;;;7.68;2.42;;;19.50;99.90;;;;;;5002005;28;20034;-62
2022/06/24 08:55:18;;;;;;;5.97;2.47;;;19.30;99.90;;;;;;5023327;28;20038;-63
2022/06/24 08:57:46;;;;;;;2.73;2.20;;;19.30;99.90;;;;;;5003865;28;20385;-62
2022/06/24 09:00:12;;;;;;;4.45;2.28;;;19.60;99.90;;;;;;5006772;28;20123;-62
2022/06/24 09:02:39;;;;;;;4.53;2.38;;;19.80;99.90;;;;;;5007318;28;20393;-61
2022/06/24 09:05:12;;;;;;;7.85;2.42;;;19.90;99.90;;;;;;5011124;28;20025;-62
2022/06/24 09:07:38;;;;;;;5.93;2.10;;;20.00;99.90;;;;;;5007550;28;20036;-61
2022/06/24 09:10:10;;;;;;;5.78;2.05;;;19.90;99.90;;;;;;5010847;28;20074;-63
2022/06/24 09:12:41;;;;;;;11.43;2.00;;;19.90;99.90;;;;;;5005899;28;20397;-62
2022/06/24 09:15:10;;;;;;;5.95;2.10;;;20.00;99.90;;;;;;5009653;28;20030;-61
2022/06/24 09:17:37;;;;;;;8.30;2.13;;;20.00;99.90;;;;;;5012790;28;20140;-62
2022/06/24 09:20:09;;;;;;;3.85;2.00;;;20.30;99.90;;;;;;5006845;28;20033;-62
2022/06/24 09:22:36;;;;;;;4.22;2.15;;;20.30;99.90;;;;;;5005645;28;20025;-63
2022/06/24 09:25:01;;;;;;;5.97;2.55;;;20.20;99.90;;;;;;5006901;28;20030;-61
2022/06/24 09:27:27;;;;;;;6.65;1.98;;;20.10;99.90;;;;;;5008202;28;20022;-63
2022/06/24 09:29:53;;;;;;;5.78;2.10;;;19.90;99.90;;;;;;5004045;28;20044;-62
2022/06/24 09:32:19;;;;;;;10.25;2.95;;;19.80;99.90;;;;;;5003381;28;20033;-62
2022/06/24 09:35:02;;;;;;;5.53;2.55;;;19.90;99.90;;;;;;5008691;28;20034;-62
2022/06/24 09:37:37;;;;;;;5.18;2.28;;;20.40;99.90;;;;;;5007148;28;20124;-62
2022/06/24 09:40:22;;;;;;;7.32;3.13;;;20.60;99.90;;;;;;5005938;28;20389;-62
2022/06/24 09:42:55;;;;;;;4.50;2.40;;;21.00;99.90;;;;;;5004956;28;20393;-63
2022/06/24 09:45:21;;;;;;;5.20;2.88;;;21.30;99.90;;;;;;5010339;28;20053;-62
2022/06/24 09:47:49;;;;;;;13.02;3.92;;;21.60;99.90;;;;;;5008187;28;20026;-63
2022/06/24 09:50:16;;;;;;;10.38;3.63;;;21.30;99.90;;;;;;5009840;28;20109;-63
2022/06/24 09:52:42;;;;;;;5.95;3.80;;;21.20;99.90;;;;;;5009937;28;20034;-63
2022/06/24 09:55:10;;;;;;;7.32;2.67;;;21.10;99.90;;;;;;5010706;28;20739;-63
2022/06/24 09:57:40;;;;;;;7.45;3.15;;;21.10;99.90;;;;;;5009926;28;20037;-62
2022/06/24 10:02:53;;;;;;;6.57;4.00;;;21.20;99.90;;;;;;5007587;28;20398;-62
2022/06/24 10:05:19;;;;;;;7.53;3.63;;;20.60;99.90;;;;;;5010556;28;20032;-62
2022/06/24 10:07:47;;;;;;;8.65;3.50;;;20.20;99.90;;;;;;5007831;28;20485;-63
2022/06/24 10:10:15;;;;;;;16.13;4.32;;;20.20;99.90;;;;;;5011671;28;20034;-63
2022/06/24 10:12:46;;;;;;;6.78;4.43;;;20.00;99.90;;;;;;5004817;28;20034;-66
2022/06/24 10:15:17;;;;;;;8.32;4.25;;;20.20;99.90;;;;;;5007882;28;20379;-63
2022/06/24 10:17:44;;;;;;;10.98;4.63;;;20.50;99.90;;;;;;5008240;28;20132;-62
2022/06/24 10:20:14;;;;;;;10.80;5.22;;;20.40;99.90;;;;;;5009885;28;20026;-62
2022/06/24 10:22:51;;;;;;;9.93;4.68;;;20.20;99.90;;;;;;5009172;28;20026;-62
2022/06/24 10:25:47;;;;;;;9.15;4.68;;;20.20;99.90;;;;;;5010162;28;20044;-62
2022/06/24 10:28:13;;;;;;;6.35;3.97;;;20.20;99.90;;;;;;5010158;28;20120;-63
2022/06/24 10:30:39;;;;;;;11.13;5.30;;;20.20;99.90;;;;;;5008480;28;20081;-61
2022/06/24 10:33:15;;;;;;;12.30;4.10;;;19.90;99.90;;;;;;5006533;28;20018;-62
2022/06/24 10:36:01;;;;;;;7.93;4.47;;;20.40;99.90;;;;;;5005210;28;20390;-62
2022/06/24 10:38:35;;;;;;;10.27;4.65;;;20.70;99.90;;;;;;5005462;28;20064;-63
2022/06/24 10:41:03;;;;;;;7.70;4.07;;;21.00;99.90;;;;;;5002345;28;20541;-62
2022/06/24 10:43:36;;;;;;;9.50;4.35;;;21.40;99.90;;;;;;5009721;28;20033;-64
2022/06/24 10:46:11;;;;;;;8.55;4.70;;;21.30;99.90;;;;;;4999917;28;20038;-63
2022/06/24 10:48:51;;;;;;;7.75;4.47;;;21.00;99.90;;;;;;5006288;28;20029;-63
2022/06/24 10:51:21;;;;;;;5.22;4.18;;;20.80;99.90;;;;;;5007531;28;20030;-62
2022/06/24 10:54:02;;;;;;;6.85;4.22;;;20.90;99.90;;;;;;5009370;28;20038;-64
2022/06/24 10:56:41;;;;;;;8.13;5.85;;;20.90;99.90;;;;;;5010270;28;20077;-62
2022/06/24 10:59:07;;;;;;;10.32;5.55;;;20.80;99.90;;;;;;5004191;28;20018;-63
2022/06/24 11:01:33;;;;;;;7.88;5.47;;;20.40;99.90;;;;;;5003193;28;20390;-62
2022/06/24 11:04:04;;;;;;;11.95;5.40;;;20.50;99.90;;;;;;5006742;28;20080;-62
2022/06/24 11:06:30;;;;;;;9.95;5.40;;;20.90;99.90;;;;;;5010487;28;20025;-63
2022/06/24 11:09:05;;;;;;;8.23;5.30;;;20.80;99.90;;;;;;5006435;28;20040;-62
2022/06/24 11:11:31;;;;;;;10.00;5.30;;;20.90;99.90;;;;;;5009963;28;20117;-63
2022/06/24 11:13:57;;;;;;;10.88;5.15;;;20.70;99.90;;;;;;5007757;28;20057;-62
2022/06/24 11:16:29;;;;;;;7.60;4.63;;;21.30;99.90;;;;;;5005998;28;20076;-62
2022/06/24 11:18:56;;;;;;;7.95;3.80;;;21.70;99.90;;;;;;5007004;28;20029;-63
2022/06/24 11:21:22;;;;;;;3.72;3.15;;;22.30;99.90;;;;;;5010398;28;20117;-65
2022/06/24 11:23:53;;;;;;;3.30;2.42;;;22.40;99.90;;;;;;5006189;28;20201;-62
2022/06/24 11:26:19;;;;;;;4.38;2.83;;;22.50;99.90;;;;;;5009862;28;20084;-63
2022/06/24 11:28:53;;;;;;;4.82;2.92;;;22.80;99.90;;;;;;5008143;28;20113;-61
2022/06/24 11:31:26;;;;;;;5.38;2.42;;;22.60;99.90;;;;;;5007837;28;20490;-61
2022/06/24 11:34:08;;;;;;;4.80;2.80;;;22.60;99.90;;;;;;5008435;28;20041;-63
2022/06/24 11:36:36;;;;;;;4.15;2.58;;;22.40;99.90;;;;;;5008507;28;20038;-63
2022/06/24 11:39:07;;;;;;;7.88;3.05;;;22.30;99.90;;;;;;5005417;28;20029;-62
2022/06/24 11:41:36;;;;;;;5.88;3.00;;;22.70;99.90;;;;;;4997184;28;20637;-61
2022/06/24 11:44:02;;;;;;;5.97;2.50;;;23.10;99.90;;;;;;5003934;28;20033;-63
2022/06/24 11:46:28;;;;;;;5.82;2.47;;;23.30;99.90;;;;;;5006424;28;20084;-62
2022/06/24 11:49:14;;;;;;;6.95;3.72;;;23.60;99.90;;;;;;5007159;28;20246;-62
2022/06/24 11:51:44;;;;;;;6.05;3.45;;;24.00;99.90;;;;;;5004994;28;20474;-62
2022/06/24 11:54:11;;;;;;;5.07;3.03;;;23.80;99.90;;;;;;5007440;28;20034;-63
2022/06/24 11:56:41;;;;;;;4.82;3.70;;;23.80;99.90;;;;;;5007465;28;20049;-61
2022/06/24 11:59:08;;;;;;;5.72;3.17;;;23.80;99.90;;;;;;5007731;28;20437;-62
2022/06/24 12:01:35;;;;;;;13.07;4.10;;;24.30;99.90;;;;;;5005777;28;20040;-62
2022/06/24 12:04:06;;;;;;;7.40;3.35;;;24.50;99.90;;;;;;5005848;28;20033;-63
2022/06/24 12:06:33;;;;;;;5.63;2.92;;;24.20;99.90;;;;;;5006077;28;20026;-62
2022/06/24 12:08:59;;;;;;;6.68;3.47;;;24.20;99.90;;;;;;5004153;28;20036;-62
2022/06/24 12:11:25;;;;;;;5.75;3.63;;;23.60;99.90;;;;;;5005394;28;20070;-62
2022/06/24 12:14:06;;;;;;;7.93;3.85;;;23.50;99.90;;;;;;5005454;28;20061;-62
2022/06/24 12:16:55;;;;;;;5.45;3.40;;;23.40;99.90;;;;;;5006121;28;20133;-63
2022/06/24 12:19:21;;;;;;;5.63;3.22;;;23.00;99.90;;;;;;5002775;28;20549;-63
2022/06/24 12:21:47;;;;;;;6.72;2.85;;;23.20;99.90;;;;;;4998446;28;20026;-62
2022/06/24 12:24:23;;;;;;;6.38;2.80;;;23.50;99.90;;;;;;4999360;28;20092;-63
2022/06/24 12:26:52;;;;;;;5.22;2.80;;;23.80;99.90;;;;;;5005474;28;20053;-63
2022/06/24 12:29:29;;;;;;;6.68;3.20;;;24.10;99.90;;;;;;5009021;28;20034;-62
2022/06/24 12:31:55;;;;;;;5.50;2.88;;;24.10;99.90;;;;;;5001086;28;20038;-61
2022/06/24 12:34:25;;;;;;;7.22;2.97;;;24.30;99.90;;;;;;5009286;28;20367;-61
2022/06/24 12:36:56;;;;;;;6.82;2.80;;;24.00;99.90;;;;;;5006132;28;20026;-62
2022/06/24 12:39:34;;;;;;;4.70;3.20;;;23.70;99.90;;;;;;5003017;28;20094;-62
2022/06/24 12:42:01;;;;;;;4.75;2.53;;;23.10;99.90;;;;;;5001418;28;20037;-61
2022/06/24 12:44:39;;;;;;;4.05;2.88;;;23.60;99.90;;;;;;5002331;28;20022;-62
2022/06/24 12:52:47;;;;;;;7.78;2.90;;;23.80;99.90;;;;;;5001563;28;20401;-62
2022/06/24 12:55:15;;;;;;;5.72;2.30;;;23.80;99.90;;;;;;5008361;28;20037;-63
2022/06/24 12:57:41;;;;;;;4.75;2.95;;;23.90;99.90;;;;;;5004780;28;20030;-61
2022/06/24 13:00:09;;;;;;;4.20;2.90;;;24.00;99.90;;;;;;5006129;28;20041;-62
2022/06/24 13:02:36;;;;;;;5.32;2.78;;;23.70;99.90;;;;;;4995741;28;20193;-61
2022/06/24 13:05:03;;;;;;;5.68;3.03;;;23.40;99.90;;;;;;5007089;28;20025;-61